Terminal Aerodrome Forecast
Issued by NWS

Home | Current Version | Previous Version | Text Only | Print | Product List | Glossary On
Versions: 1 2 3 4 5 6 7 8 9 10 11 12 13 14 15 16 17 18 19 20 21 22
000
FTUS43 KMPX 221400 AAA
TAFAXN
TAF AMD
KAXN 221429Z 2214/2312 00000KT P6SM BKN009
     FM221700 36005KT P6SM BKN015
     FM221900 01005KT P6SM SCT035
     FM230900 07005KT 5SM BR BKN120 OVC200=

USA.gov is the U.S. government's official web portal to all federal, state and local government web resources and services.